createdAt,value
2017-02-11T00:01:12.411Z,0
2017-02-11T00:02:25.718Z,0
2017-02-11T00:03:38.759Z,0
2017-02-11T00:04:51.887Z,0
2017-02-11T00:06:04.954Z,0
2017-02-11T00:07:18.079Z,0
2017-02-11T00:08:31.121Z,0
2017-02-11T00:09:44.176Z,0
2017-02-11T00:10:57.278Z,0
2017-02-11T00:12:09.947Z,0
2017-02-11T00:13:22.670Z,0
2017-02-11T00:14:35.723Z,0
2017-02-11T00:15:48.767Z,0
2017-02-11T00:17:01.415Z,0
2017-02-11T00:18:13.728Z,0
2017-02-11T00:19:26.831Z,0
2017-02-11T00:20:39.856Z,0
2017-02-11T00:21:52.931Z,0
2017-02-11T00:23:06.023Z,0
2017-02-11T00:24:18.982Z,0
2017-02-11T00:25:32.110Z,0
2017-02-11T00:26:45.111Z,0
2017-02-11T00:27:57.778Z,0
2017-02-11T00:29:10.780Z,0
2017-02-11T00:30:23.870Z,0
2017-02-11T00:31:36.950Z,0
2017-02-11T00:32:50.039Z,0
2017-02-11T00:34:03.081Z,0
2017-02-11T00:35:15.752Z,0
2017-02-11T00:36:28.799Z,0
2017-02-11T00:37:41.939Z,0
2017-02-11T00:38:54.626Z,0
2017-02-11T00:40:07.685Z,0
2017-02-11T00:41:20.319Z,0
2017-02-11T00:42:33.370Z,0
2017-02-11T00:43:46.399Z,0
2017-02-11T00:44:59.081Z,0
2017-02-11T00:46:12.400Z,0
2017-02-11T00:47:25.078Z,0
2017-02-11T00:48:37.738Z,0
2017-02-11T00:49:50.364Z,0
2017-02-11T00:51:03.487Z,0
2017-02-11T00:52:16.638Z,0
2017-02-11T00:53:29.703Z,0
2017-02-11T00:54:42.823Z,0
2017-02-11T00:55:55.931Z,0
2017-02-11T00:57:09.231Z,0
2017-02-11T00:58:22.267Z,0
2017-02-11T00:59:35.300Z,0
2017-02-11T01:00:48.416Z,0
2017-02-11T01:02:01.123Z,0
2017-02-11T01:03:13.855Z,0
2017-02-11T01:04:26.144Z,0
2017-02-11T01:05:39.175Z,0
2017-02-11T01:06:52.212Z,0
2017-02-11T01:08:05.231Z,0
2017-02-11T01:09:17.160Z,0
2017-02-11T01:10:30.186Z,0
2017-02-11T01:11:43.219Z,0
2017-02-11T01:12:56.296Z,0
2017-02-11T01:14:08.971Z,0
2017-02-11T01:15:21.237Z,0
2017-02-11T01:16:34.371Z,0
2017-02-11T01:17:47.483Z,0
2017-02-11T01:19:00.538Z,0
2017-02-11T01:20:13.622Z,0
2017-02-11T01:21:26.682Z,0
2017-02-11T01:22:39.775Z,0
2017-02-11T01:23:52.846Z,0
2017-02-11T01:25:05.155Z,0
2017-02-11T01:26:17.429Z,0
2017-02-11T01:27:30.532Z,0
2017-02-11T01:28:43.628Z,0
2017-02-11T01:29:56.304Z,0
2017-02-11T01:31:09.013Z,0
2017-02-11T01:32:22.116Z,0
2017-02-11T01:33:35.151Z,0
2017-02-11T01:34:48.188Z,0
2017-02-11T01:36:01.275Z,0
2017-02-11T01:37:14.367Z,0
2017-02-11T01:38:27.390Z,0
2017-02-11T01:39:40.696Z,0
2017-02-11T01:40:53.359Z,0
2017-02-11T01:42:06.451Z,0
2017-02-11T01:43:18.781Z,0
2017-02-11T01:44:31.897Z,0
2017-02-11T01:45:44.949Z,0
2017-02-11T01:46:58.016Z,0
2017-02-11T01:48:11.031Z,0
2017-02-11T01:49:23.702Z,0
2017-02-11T01:50:36.749Z,0
2017-02-11T01:51:49.831Z,0
2017-02-11T01:53:02.950Z,0
2017-02-11T01:54:15.629Z,0
2017-02-11T01:55:28.656Z,0
2017-02-11T01:56:41.740Z,0
2017-02-11T01:57:54.772Z,0
2017-02-11T01:59:07.853Z,0
2017-02-11T02:00:20.588Z,0
2017-02-11T02:01:33.680Z,0
2017-02-11T02:02:46.681Z,0
2017-02-11T02:03:59.725Z,0
2017-02-11T02:05:12.809Z,0
2017-02-11T02:06:25.842Z,0
2017-02-11T02:07:38.937Z,0
2017-02-11T02:08:52.004Z,0
2017-02-11T02:10:05.034Z,0
2017-02-11T02:11:18.070Z,0
2017-02-11T02:12:31.386Z,0
2017-02-11T02:13:44.400Z,0
2017-02-11T02:14:57.543Z,0
2017-02-11T02:16:09.859Z,0
2017-02-11T02:17:22.902Z,0
2017-02-11T02:18:35.965Z,0
2017-02-11T02:19:48.650Z,0
2017-02-11T02:21:01.738Z,0
2017-02-11T02:22:14.360Z,0
2017-02-11T02:23:27.479Z,0
2017-02-11T02:24:40.580Z,0
2017-02-11T02:25:53.602Z,0
2017-02-11T02:27:06.295Z,0
2017-02-11T02:28:19.318Z,0
2017-02-11T02:29:32.389Z,0
2017-02-11T02:30:45.517Z,0
2017-02-11T02:31:58.603Z,0
2017-02-11T02:33:11.236Z,0
2017-02-11T02:34:23.919Z,0
2017-02-11T02:35:36.983Z,0
2017-02-11T02:36:50.086Z,0
2017-02-11T02:38:02.807Z,0
2017-02-11T02:39:15.140Z,0
2017-02-11T02:40:28.210Z,0
2017-02-11T02:41:41.288Z,0
2017-02-11T02:42:54.328Z,0
2017-02-11T02:44:07.073Z,0
2017-02-11T02:45:20.402Z,0
2017-02-11T02:46:33.404Z,0
2017-02-11T02:47:46.524Z,0
2017-02-11T02:48:59.599Z,0
2017-02-11T02:50:12.298Z,0
2017-02-11T02:51:25.341Z,0
2017-02-11T02:52:38.484Z,0
2017-02-11T02:53:51.530Z,0
2017-02-11T02:55:04.543Z,0
2017-02-11T02:56:17.589Z,0
2017-02-11T02:57:30.680Z,0
2017-02-11T02:58:43.767Z,0
2017-02-11T02:59:56.833Z,0
2017-02-11T03:01:09.908Z,0
2017-02-11T03:02:22.943Z,0
2017-02-11T03:03:36.053Z,0
2017-02-11T03:04:49.115Z,0
2017-02-11T03:06:02.182Z,0
2017-02-11T03:07:15.235Z,0
2017-02-11T03:08:28.297Z,0
2017-02-11T03:09:41.352Z,0
2017-02-11T03:10:54.382Z,0
2017-02-11T03:12:07.045Z,0
2017-02-11T03:13:19.600Z,0
2017-02-11T03:14:32.650Z,0
2017-02-11T03:15:45.806Z,0
2017-02-11T03:16:58.865Z,0
2017-02-11T03:18:11.560Z,0
2017-02-11T03:19:24.231Z,0
2017-02-11T03:20:37.283Z,0
2017-02-11T03:21:50.298Z,0
2017-02-11T03:23:03.348Z,0
2017-02-11T03:24:16.403Z,0
2017-02-11T03:25:29.524Z,0
2017-02-11T03:26:42.544Z,0
2017-02-11T03:27:55.644Z,0
2017-02-11T03:29:08.702Z,0
2017-02-11T03:30:21.407Z,0
2017-02-11T03:31:34.459Z,0
2017-02-11T03:32:47.509Z,0
2017-02-11T03:34:00.231Z,0
2017-02-11T03:35:13.326Z,0
2017-02-11T03:36:26.437Z,0
2017-02-11T03:37:39.536Z,0
2017-02-11T03:38:52.639Z,0
2017-02-11T03:40:05.926Z,0
2017-02-11T03:41:18.232Z,0
2017-02-11T03:42:31.309Z,0
2017-02-11T03:43:44.336Z,0
2017-02-11T03:44:57.343Z,0
2017-02-11T03:46:10.389Z,0
2017-02-11T03:47:23.055Z,0
2017-02-11T03:48:36.074Z,0
2017-02-11T03:49:49.152Z,0
2017-02-11T03:51:02.173Z,0
2017-02-11T03:52:15.240Z,0
2017-02-11T03:53:28.390Z,0
2017-02-11T03:54:41.456Z,0
2017-02-11T03:55:54.140Z,0
2017-02-11T03:57:06.834Z,0
2017-02-11T03:58:19.468Z,0
2017-02-11T03:59:32.566Z,0
2017-02-11T04:00:45.598Z,0
2017-02-11T04:01:58.625Z,0
2017-02-11T04:03:10.933Z,0
2017-02-11T04:04:23.649Z,0
2017-02-11T04:05:36.763Z,0
2017-02-11T04:06:49.815Z,0
2017-02-11T04:08:02.531Z,0
2017-02-11T04:09:15.567Z,0
2017-02-11T04:10:28.723Z,0
2017-02-11T04:11:41.761Z,0
2017-02-11T04:12:54.794Z,0
2017-02-11T04:14:07.800Z,0
2017-02-11T04:15:20.859Z,0
2017-02-11T04:16:33.980Z,0
2017-02-11T04:17:47.041Z,0
2017-02-11T04:19:00.094Z,0
2017-02-11T04:20:13.138Z,0
2017-02-11T04:21:25.836Z,0
2017-02-11T04:22:38.979Z,0
2017-02-11T04:23:52.042Z,0
2017-02-11T04:25:05.088Z,0
2017-02-11T04:26:17.812Z,0
2017-02-11T04:27:30.857Z,0
2017-02-11T04:28:43.966Z,0
2017-02-11T04:29:57.031Z,0
2017-02-11T04:31:09.732Z,0
2017-02-11T04:32:22.764Z,0
2017-02-11T04:33:35.846Z,0
2017-02-11T04:34:49.182Z,0
2017-02-11T04:36:02.217Z,0
2017-02-11T04:37:14.480Z,0
2017-02-11T04:38:27.163Z,0
2017-02-11T04:39:40.233Z,0
2017-02-11T04:40:53.286Z,0
2017-02-11T04:42:05.972Z,0
2017-02-11T04:43:19.073Z,0
2017-02-11T04:44:32.181Z,0
2017-02-11T04:45:45.215Z,0
2017-02-11T04:46:58.310Z,0
2017-02-11T04:48:11.420Z,0
2017-02-11T04:49:24.534Z,0
2017-02-11T04:50:37.867Z,0
2017-02-11T04:51:50.963Z,0
2017-02-11T04:53:03.654Z,0
2017-02-11T04:54:16.716Z,0
2017-02-11T04:55:29.780Z,0
2017-02-11T04:56:42.817Z,0
2017-02-11T04:57:55.493Z,0
2017-02-11T04:59:08.571Z,0
2017-02-11T05:00:21.253Z,0
2017-02-11T05:01:33.916Z,0
2017-02-11T05:02:47.102Z,0
2017-02-11T05:04:00.209Z,0
2017-02-11T05:05:12.860Z,0
2017-02-11T05:06:25.581Z,0
2017-02-11T05:07:38.647Z,0
2017-02-11T05:08:51.800Z,0
2017-02-11T05:10:04.852Z,0
2017-02-11T05:11:17.867Z,0
2017-02-11T05:12:30.919Z,0
2017-02-11T05:13:43.959Z,0
2017-02-11T05:14:57.047Z,0
2017-02-11T05:16:09.756Z,0
2017-02-11T05:17:22.801Z,0
2017-02-11T05:18:35.885Z,0
2017-02-11T05:19:48.927Z,0
2017-02-11T05:21:02.016Z,0
2017-02-11T05:22:14.707Z,0
2017-02-11T05:23:27.755Z,0
2017-02-11T05:24:40.863Z,0
2017-02-11T05:25:53.904Z,0
2017-02-11T05:27:06.995Z,0
2017-02-11T05:28:19.665Z,0
2017-02-11T05:29:32.733Z,0
2017-02-11T05:30:45.801Z,0
2017-02-11T05:31:58.833Z,0
2017-02-11T05:33:11.957Z,0
2017-02-11T05:34:25.056Z,0
2017-02-11T05:35:38.090Z,0
2017-02-11T05:36:51.109Z,0
2017-02-11T05:38:04.192Z,0
2017-02-11T05:39:16.878Z,0
2017-02-11T05:40:29.841Z,0
2017-02-11T05:41:42.931Z,0
2017-02-11T05:42:56.019Z,0
2017-02-11T05:44:09.098Z,0
2017-02-11T05:45:22.213Z,0
2017-02-11T05:46:35.279Z,0
2017-02-11T05:47:48.329Z,0
2017-02-11T05:49:00.991Z,0
2017-02-11T05:50:14.061Z,0
2017-02-11T05:51:26.780Z,0
2017-02-11T05:52:39.902Z,0
2017-02-11T05:53:52.947Z,0
2017-02-11T05:55:05.618Z,0
2017-02-11T05:56:18.317Z,4
2017-02-11T05:57:31.404Z,0
2017-02-11T05:58:44.483Z,4
2017-02-11T05:59:57.518Z,4
2017-02-11T06:01:10.589Z,4
2017-02-11T06:02:23.646Z,4
2017-02-11T06:03:36.764Z,4
2017-02-11T06:04:49.447Z,8
2017-02-11T06:06:02.549Z,8
2017-02-11T06:07:15.251Z,12
2017-02-11T06:08:28.314Z,16
2017-02-11T06:09:41.405Z,16
2017-02-11T06:10:54.508Z,24
2017-02-11T06:12:07.521Z,24
2017-02-11T06:13:19.860Z,28
2017-02-11T06:14:32.914Z,36
2017-02-11T06:15:45.948Z,36
2017-02-11T06:16:58.987Z,44
2017-02-11T06:18:11.997Z,52
2017-02-11T06:19:25.144Z,64
2017-02-11T06:20:38.212Z,68
2017-02-11T06:21:51.326Z,80
2017-02-11T06:23:04.407Z,88
2017-02-11T06:24:17.474Z,100
2017-02-11T06:25:30.466Z,116
2017-02-11T06:26:43.098Z,132
2017-02-11T06:27:56.235Z,152
2017-02-11T06:29:09.251Z,180
2017-02-11T06:30:21.566Z,200
2017-02-11T06:31:34.655Z,228
2017-02-11T06:32:47.744Z,260
2017-02-11T06:34:00.829Z,292
2017-02-11T06:35:13.457Z,332
2017-02-11T06:36:26.559Z,372
2017-02-11T06:37:39.624Z,416
2017-02-11T06:38:52.701Z,456
2017-02-11T06:40:05.781Z,492
2017-02-11T06:41:18.873Z,536
2017-02-11T06:42:31.975Z,600
2017-02-11T06:43:45.041Z,680
2017-02-11T06:44:58.401Z,752
2017-02-11T06:46:11.424Z,824
2017-02-11T06:47:24.515Z,916
2017-02-11T06:48:37.579Z,1004
2017-02-11T06:49:50.300Z,1080
2017-02-11T06:51:03.404Z,1144
2017-02-11T06:52:15.305Z,1200
2017-02-11T06:53:28.338Z,1236
2017-02-11T06:54:41.440Z,1292
2017-02-11T06:55:54.472Z,1356
2017-02-11T06:57:07.547Z,1416
2017-02-11T06:58:20.195Z,1460
2017-02-11T06:59:32.881Z,1524
2017-02-11T07:00:45.912Z,1624
2017-02-11T07:01:58.538Z,1680
2017-02-11T07:03:11.237Z,1760
2017-02-11T07:04:24.297Z,1860
2017-02-11T07:05:36.934Z,1916
2017-02-11T07:06:49.940Z,1968
2017-02-11T07:08:03.012Z,2100
2017-02-11T07:09:15.690Z,2264
2017-02-11T07:10:28.387Z,2420
2017-02-11T07:11:41.489Z,2520
2017-02-11T07:12:54.766Z,2600
2017-02-11T07:14:07.877Z,2664
2017-02-11T07:15:20.975Z,2724
2017-02-11T07:16:34.070Z,2772
2017-02-11T07:17:47.187Z,2788
2017-02-11T07:19:00.250Z,2844
2017-02-11T07:20:13.283Z,2920
2017-02-11T07:21:26.059Z,2944
2017-02-11T07:22:39.096Z,2928
2017-02-11T07:23:52.191Z,2924
2017-02-11T07:25:04.911Z,2956
2017-02-11T07:26:17.574Z,3008
2017-02-11T07:27:30.659Z,3008
2017-02-11T07:28:43.730Z,3024
2017-02-11T07:29:56.781Z,3024
2017-02-11T07:31:09.583Z,3020
2017-02-11T07:32:22.262Z,2948
2017-02-11T07:33:35.364Z,2976
2017-02-11T07:34:48.396Z,2936
2017-02-11T07:36:01.417Z,2936
2017-02-11T07:37:14.075Z,2872
2017-02-11T07:38:26.350Z,2860
2017-02-11T07:39:39.419Z,2828
2017-02-11T07:40:52.490Z,2756
2017-02-11T07:42:05.552Z,2732
2017-02-11T07:43:18.605Z,2728
2017-02-11T07:44:31.625Z,2728
2017-02-11T07:45:44.970Z,2724
2017-02-11T07:46:58.063Z,2840
2017-02-11T07:48:10.723Z,2944
2017-02-11T07:49:23.791Z,3000
2017-02-11T07:50:36.501Z,3084
2017-02-11T07:51:49.577Z,3184
2017-02-11T07:53:02.670Z,3328
2017-02-11T07:54:15.369Z,3456
2017-02-11T07:55:28.463Z,3624
2017-02-11T07:56:41.555Z,3812
2017-02-11T07:57:54.616Z,3976
2017-02-11T07:59:07.675Z,4024
2017-02-11T08:00:20.796Z,4112
2017-02-11T08:01:33.874Z,4268
2017-02-11T08:02:47.009Z,4480
2017-02-11T08:04:00.092Z,4496
2017-02-11T08:05:13.256Z,4580
2017-02-11T08:06:26.281Z,4716
2017-02-11T08:07:39.343Z,4832
2017-02-11T08:08:52.412Z,4884
2017-02-11T08:10:05.447Z,4820
2017-02-11T08:11:18.154Z,4620
2017-02-11T08:12:31.226Z,4656
2017-02-11T08:13:44.301Z,4848
2017-02-11T08:14:57.392Z,5020
2017-02-11T08:16:10.463Z,5180
2017-02-11T08:17:23.510Z,5344
2017-02-11T08:18:36.572Z,5516
2017-02-11T08:19:49.607Z,5780
2017-02-11T08:21:02.720Z,5964
2017-02-11T08:22:15.780Z,6184
2017-02-11T08:23:29.107Z,6352
2017-02-11T08:24:42.217Z,6268
2017-02-11T08:25:55.280Z,6208
2017-02-11T08:27:08.312Z,6608
2017-02-11T08:28:21.422Z,6836
2017-02-11T08:29:34.093Z,6836
2017-02-11T08:30:47.132Z,6956
2017-02-11T08:32:00.195Z,7048
2017-02-11T08:33:13.247Z,7296
2017-02-11T08:34:26.308Z,7416
2017-02-11T08:35:39.351Z,7740
2017-02-11T08:36:52.405Z,7928
2017-02-11T08:38:05.517Z,8032
2017-02-11T08:39:17.819Z,8120
2017-02-11T08:40:30.900Z,8208
2017-02-11T08:41:43.931Z,8304
2017-02-11T08:42:57.009Z,8396
2017-02-11T08:44:10.075Z,8524
2017-02-11T08:45:22.793Z,8644
2017-02-11T08:46:35.811Z,8836
2017-02-11T08:47:48.868Z,9056
2017-02-11T08:49:01.930Z,9196
2017-02-11T08:50:15.013Z,9352
2017-02-11T08:51:27.719Z,9452
2017-02-11T08:52:40.771Z,9504
2017-02-11T08:53:53.428Z,9544
2017-02-11T08:55:06.456Z,9588
2017-02-11T08:56:19.504Z,9636
2017-02-11T08:57:32.562Z,9692
2017-02-11T08:58:45.718Z,9712
2017-02-11T08:59:58.776Z,9692
2017-02-11T09:01:11.863Z,9572
2017-02-11T09:02:24.884Z,9576
2017-02-11T09:03:38.005Z,9500
2017-02-11T09:04:50.660Z,9476
2017-02-11T09:06:03.731Z,9572
2017-02-11T09:07:15.997Z,9428
2017-02-11T09:08:29.063Z,9248
2017-02-11T09:09:42.149Z,9548
2017-02-11T09:10:55.187Z,9672
2017-02-11T09:12:08.275Z,10020
2017-02-11T09:13:20.894Z,10152
2017-02-11T09:14:33.960Z,10040
2017-02-11T09:15:47.022Z,9660
2017-02-11T09:17:00.047Z,9744
2017-02-11T09:18:13.166Z,9752
2017-02-11T09:19:26.247Z,10132
2017-02-11T09:20:38.931Z,10364
2017-02-11T09:21:51.995Z,10472
2017-02-11T09:23:05.086Z,10880
2017-02-11T09:24:18.132Z,10804
2017-02-11T09:25:31.246Z,10608
2017-02-11T09:26:44.249Z,10320
2017-02-11T09:27:57.322Z,10240
2017-02-11T09:29:10.455Z,9828
2017-02-11T09:30:23.544Z,9428
2017-02-11T09:31:36.623Z,9476
2017-02-11T09:32:49.714Z,9312
2017-02-11T09:34:02.780Z,9348
2017-02-11T09:35:15.851Z,9244
2017-02-11T09:36:28.918Z,9176
2017-02-11T09:37:42.005Z,9192
2017-02-11T09:38:55.074Z,8980
2017-02-11T09:40:07.358Z,8900
2017-02-11T09:41:19.635Z,8656
2017-02-11T09:42:32.743Z,8716
2017-02-11T09:43:45.772Z,8980
2017-02-11T09:44:58.838Z,8872
2017-02-11T09:46:11.531Z,8756
2017-02-11T09:47:24.207Z,8604
2017-02-11T09:48:37.255Z,8604
2017-02-11T09:49:50.287Z,8628
2017-02-11T09:51:03.367Z,8300
2017-02-11T09:52:16.429Z,8236
2017-02-11T09:53:29.542Z,8036
2017-02-11T09:54:42.245Z,7804
2017-02-11T09:55:55.336Z,7484
2017-02-11T09:57:08.451Z,7120
2017-02-11T09:58:21.521Z,6880
2017-02-11T09:59:56.405Z,6740
2017-02-11T10:01:09.533Z,6808
2017-02-11T10:02:22.172Z,6872
2017-02-11T10:03:34.875Z,6752
2017-02-11T10:04:47.998Z,6908
2017-02-11T10:06:00.678Z,6952
2017-02-11T10:07:13.437Z,7024
2017-02-11T10:08:26.111Z,7112
2017-02-11T10:09:39.154Z,7348
2017-02-11T10:10:52.227Z,7528
2017-02-11T10:12:05.327Z,7780
2017-02-11T10:13:18.419Z,7980
2017-02-11T10:14:31.539Z,7968
2017-02-11T10:15:44.233Z,8236
2017-02-11T10:16:57.265Z,8368
2017-02-11T10:18:10.381Z,8708
2017-02-11T10:19:23.063Z,8928
2017-02-11T10:20:36.141Z,9216
2017-02-11T10:21:49.229Z,9336
2017-02-11T10:23:02.515Z,9316
2017-02-11T10:24:15.222Z,9428
2017-02-11T10:25:27.878Z,9348
2017-02-11T10:26:40.979Z,9140
2017-02-11T10:27:54.054Z,8852
2017-02-11T10:29:07.168Z,8620
2017-02-11T10:30:19.891Z,8520
2017-02-11T10:31:32.933Z,8408
2017-02-11T10:32:46.000Z,7816
2017-02-11T10:33:59.032Z,7276
2017-02-11T10:35:12.142Z,6948
2017-02-11T10:36:25.150Z,6504
2017-02-11T10:37:38.246Z,6356
2017-02-11T10:38:51.363Z,6388
2017-02-11T10:40:04.051Z,6400
2017-02-11T10:41:17.151Z,6536
2017-02-11T10:42:29.830Z,6780
2017-02-11T10:43:42.968Z,7004
2017-02-11T10:44:56.308Z,7244
2017-02-11T10:46:09.371Z,7392
2017-02-11T10:47:22.490Z,7572
2017-02-11T10:48:35.528Z,7808
2017-02-11T10:49:48.629Z,8132
2017-02-11T10:51:01.789Z,8748
2017-02-11T10:52:14.509Z,9244
2017-02-11T10:53:27.208Z,9924
2017-02-11T10:54:40.313Z,10540
2017-02-11T10:55:53.427Z,11592
2017-02-11T10:57:06.494Z,12680
2017-02-11T10:58:19.167Z,14084
2017-02-11T10:59:32.220Z,15348
2017-02-11T11:00:45.560Z,16436
2017-02-11T11:01:58.651Z,18080
2017-02-11T11:03:11.721Z,19296
2017-02-11T11:04:24.400Z,20224
2017-02-11T11:05:37.399Z,20768
2017-02-11T11:06:50.507Z,21184
2017-02-11T11:08:03.631Z,21216
2017-02-11T11:09:16.728Z,21216
2017-02-11T11:10:29.778Z,21088
2017-02-11T11:11:42.423Z,20896
2017-02-11T11:12:55.469Z,19808
2017-02-11T11:14:08.590Z,18080
2017-02-11T11:15:21.686Z,15788
2017-02-11T11:16:34.704Z,14192
2017-02-11T11:17:48.022Z,12588
2017-02-11T11:19:01.119Z,12208
2017-02-11T11:20:13.794Z,12044
2017-02-11T11:21:26.866Z,12408
2017-02-11T11:22:39.911Z,13336
2017-02-11T11:23:52.958Z,14468
2017-02-11T11:25:06.054Z,15416
2017-02-11T11:26:18.720Z,16000
2017-02-11T11:27:31.773Z,16272
2017-02-11T11:28:44.845Z,17024
2017-02-11T11:29:57.966Z,17088
2017-02-11T11:31:11.054Z,16660
2017-02-11T11:32:24.108Z,16492
2017-02-11T11:33:37.219Z,16136
2017-02-11T11:34:50.264Z,15956
2017-02-11T11:36:03.341Z,14936
2017-02-11T11:37:16.449Z,13796
2017-02-11T11:38:29.470Z,12840
2017-02-11T11:39:42.766Z,12996
2017-02-11T11:40:55.824Z,12868
2017-02-11T11:42:08.952Z,12612
2017-02-11T11:43:21.672Z,12264
2017-02-11T11:44:34.806Z,12488
2017-02-11T11:45:47.832Z,12736
2017-02-11T11:47:00.902Z,12932
2017-02-11T11:48:14.011Z,12536
2017-02-11T11:49:27.077Z,11868
2017-02-11T11:50:40.154Z,12104
2017-02-11T11:51:53.242Z,12224
2017-02-11T11:53:06.278Z,11816
2017-02-11T11:54:19.023Z,12200
2017-02-11T11:55:31.287Z,11208
2017-02-11T11:56:44.015Z,10196
2017-02-11T11:57:57.087Z,9756
2017-02-11T11:59:10.156Z,9716
2017-02-11T12:00:23.271Z,10152
2017-02-11T12:01:36.305Z,9840
2017-02-11T12:02:49.427Z,9544
2017-02-11T12:04:02.470Z,9240
2017-02-11T12:05:15.143Z,9292
2017-02-11T12:06:27.814Z,9652
2017-02-11T12:07:40.828Z,10276
2017-02-11T12:08:53.903Z,11308
2017-02-11T12:10:06.944Z,11112
2017-02-11T12:11:18.872Z,10752
2017-02-11T12:12:31.556Z,10168
2017-02-11T12:13:44.583Z,9920
2017-02-11T12:14:57.677Z,9716
2017-02-11T12:16:10.379Z,9484
2017-02-11T12:17:23.519Z,9448
2017-02-11T12:18:36.245Z,9092
2017-02-11T12:19:49.306Z,9228
2017-02-11T12:21:02.394Z,9076
2017-02-11T12:22:14.697Z,9284
2017-02-11T12:23:27.700Z,9532
2017-02-11T12:24:40.363Z,9132
2017-02-11T12:25:53.423Z,8424
2017-02-11T12:27:06.531Z,8016
2017-02-11T12:28:19.588Z,7588
2017-02-11T12:29:32.682Z,7268
2017-02-11T12:30:45.776Z,7032
2017-02-11T12:31:58.808Z,6384
2017-02-11T12:33:11.854Z,6192
2017-02-11T12:34:24.914Z,5908
2017-02-11T12:35:37.945Z,5936
2017-02-11T12:36:51.112Z,5904
2017-02-11T12:38:03.450Z,5672
2017-02-11T12:39:15.339Z,5540
2017-02-11T12:40:28.455Z,5140
2017-02-11T12:41:41.488Z,4956
2017-02-11T12:42:54.520Z,4940
2017-02-11T12:44:07.593Z,4952
2017-02-11T12:45:20.701Z,4960
2017-02-11T12:46:33.758Z,4756
2017-02-11T12:47:46.799Z,4668
2017-02-11T12:48:59.502Z,4624
2017-02-11T12:50:12.566Z,4532
2017-02-11T12:51:25.643Z,4696
2017-02-11T12:52:38.708Z,4544
2017-02-11T12:53:51.796Z,4468
2017-02-11T12:55:04.874Z,4492
2017-02-11T12:56:17.571Z,4532
2017-02-11T12:57:30.663Z,4564
2017-02-11T12:58:43.789Z,4804
2017-02-11T12:59:56.801Z,5088
2017-02-11T13:01:09.841Z,5316
2017-02-11T13:02:22.475Z,5424
2017-02-11T13:03:35.146Z,5744
2017-02-11T13:04:48.228Z,6120
2017-02-11T13:06:01.306Z,6636
2017-02-11T13:07:14.358Z,7220
2017-02-11T13:08:27.402Z,7716
2017-02-11T13:09:40.109Z,8432
2017-02-11T13:10:53.182Z,9008
2017-02-11T13:12:06.241Z,9292
2017-02-11T13:13:19.297Z,9856
2017-02-11T13:14:32.384Z,10012
2017-02-11T13:15:45.437Z,10256
2017-02-11T13:16:58.494Z,10404
2017-02-11T13:18:10.801Z,10336
2017-02-11T13:19:23.517Z,10596
2017-02-11T13:20:35.832Z,10956
2017-02-11T13:21:48.911Z,11004
2017-02-11T13:23:01.999Z,11104
2017-02-11T13:24:15.049Z,11224
2017-02-11T13:25:28.164Z,10996
2017-02-11T13:26:41.198Z,10248
2017-02-11T13:27:54.260Z,9280
2017-02-11T13:29:07.305Z,8688
2017-02-11T13:30:19.598Z,8364
2017-02-11T13:31:32.651Z,7796
2017-02-11T13:32:45.772Z,7340
2017-02-11T13:33:58.854Z,6880
2017-02-11T13:35:11.562Z,6400
2017-02-11T13:36:24.643Z,5940
2017-02-11T13:37:37.674Z,5692
2017-02-11T13:38:50.337Z,5452
2017-02-11T13:40:03.377Z,5360
2017-02-11T13:41:16.464Z,5464
2017-02-11T13:42:29.499Z,5652
2017-02-11T13:43:42.154Z,5956
2017-02-11T13:44:55.271Z,6088
2017-02-11T13:46:08.406Z,5888
2017-02-11T13:47:21.533Z,5568
2017-02-11T13:48:34.585Z,5496
2017-02-11T13:49:47.315Z,5408
2017-02-11T13:50:59.985Z,5308
2017-02-11T13:52:12.723Z,5180
2017-02-11T13:53:25.374Z,5372
2017-02-11T13:54:38.467Z,5632
2017-02-11T13:55:51.569Z,5804
2017-02-11T13:57:04.658Z,5780
2017-02-11T13:58:17.710Z,5624
2017-02-11T13:59:31.031Z,5680
2017-02-11T14:00:43.750Z,5580
2017-02-11T14:01:56.848Z,5548
2017-02-11T14:03:09.550Z,5588
2017-02-11T14:04:22.226Z,5692
2017-02-11T14:05:35.272Z,5636
2017-02-11T14:06:48.301Z,5308
2017-02-11T14:08:01.377Z,5060
2017-02-11T14:09:14.549Z,4912
2017-02-11T14:10:27.639Z,4884
2017-02-11T14:11:40.690Z,4908
2017-02-11T14:12:53.790Z,4568
2017-02-11T14:14:06.932Z,4012
2017-02-11T14:15:20.036Z,3820
2017-02-11T14:16:33.104Z,3836
2017-02-11T14:17:46.216Z,3680
2017-02-11T14:18:59.270Z,3560
2017-02-11T14:20:12.359Z,3640
2017-02-11T14:21:25.264Z,3960
2017-02-11T14:22:37.947Z,4228
2017-02-11T14:23:50.668Z,4368
2017-02-11T14:25:03.713Z,4380
2017-02-11T14:26:16.376Z,4424
2017-02-11T14:27:29.438Z,4448
2017-02-11T14:28:42.505Z,4332
2017-02-11T14:29:55.583Z,4152
2017-02-11T14:31:08.672Z,3976
2017-02-11T14:32:21.695Z,3824
2017-02-11T14:33:34.764Z,3688
2017-02-11T14:34:47.863Z,3680
2017-02-11T14:36:00.629Z,3712
2017-02-11T14:37:13.728Z,3644
2017-02-11T14:38:26.892Z,3568
2017-02-11T14:39:39.545Z,3464
2017-02-11T14:40:52.265Z,3280
2017-02-11T14:42:04.906Z,3128
2017-02-11T14:43:17.225Z,3056
2017-02-11T14:44:30.297Z,3008
2017-02-11T14:45:43.346Z,2936
2017-02-11T14:46:56.475Z,2900
2017-02-11T14:48:09.179Z,2852
2017-02-11T14:49:21.422Z,2824
2017-02-11T14:50:34.509Z,2656
2017-02-11T14:51:47.638Z,2552
2017-02-11T14:53:00.780Z,2524
2017-02-11T14:54:13.415Z,2500
2017-02-11T14:55:26.491Z,2376
2017-02-11T14:56:39.605Z,2220
2017-02-11T14:57:52.628Z,2060
2017-02-11T14:59:05.725Z,1928
2017-02-11T15:00:18.795Z,1840
2017-02-11T15:01:31.865Z,1740
2017-02-11T15:02:44.913Z,1588
2017-02-11T15:03:57.987Z,1460
2017-02-11T15:05:10.734Z,1264
2017-02-11T15:06:23.379Z,1088
2017-02-11T15:07:36.487Z,960
2017-02-11T15:08:49.546Z,888
2017-02-11T15:10:02.597Z,872
2017-02-11T15:11:15.667Z,896
2017-02-11T15:12:28.767Z,892
2017-02-11T15:13:41.924Z,860
2017-02-11T15:14:54.950Z,820
2017-02-11T15:16:07.671Z,796
2017-02-11T15:17:20.379Z,784
2017-02-11T15:18:33.461Z,748
2017-02-11T15:19:46.487Z,704
2017-02-11T15:20:59.802Z,660
2017-02-11T15:22:12.580Z,624
2017-02-11T15:23:25.618Z,600
2017-02-11T15:24:38.316Z,584
2017-02-11T15:25:51.374Z,564
2017-02-11T15:27:04.428Z,540
2017-02-11T15:28:17.502Z,532
2017-02-11T15:29:30.585Z,532
2017-02-11T15:30:43.216Z,528
2017-02-11T15:31:56.240Z,516
2017-02-11T15:33:09.332Z,508
2017-02-11T15:34:22.431Z,524
2017-02-11T15:35:35.530Z,520
2017-02-11T15:36:48.594Z,500
2017-02-11T15:38:01.693Z,480
2017-02-11T15:39:14.390Z,472
2017-02-11T15:40:27.482Z,472
2017-02-11T15:41:40.554Z,452
2017-02-11T15:42:53.853Z,436
2017-02-11T15:44:06.950Z,432
2017-02-11T15:45:20.066Z,416
2017-02-11T15:46:33.128Z,404
2017-02-11T15:47:46.158Z,380
2017-02-11T15:48:59.244Z,368
2017-02-11T15:50:12.291Z,356
2017-02-11T15:51:25.326Z,332
2017-02-11T15:52:38.380Z,312
2017-02-11T15:53:51.411Z,304
2017-02-11T15:55:04.063Z,292
2017-02-11T15:56:17.117Z,284
2017-02-11T15:57:30.264Z,268
2017-02-11T15:58:42.548Z,252
2017-02-11T15:59:55.667Z,228
2017-02-11T16:01:08.722Z,212
2017-02-11T16:02:21.782Z,192
2017-02-11T16:03:34.834Z,176
2017-02-11T16:04:47.898Z,160
2017-02-11T16:06:00.595Z,148
2017-02-11T16:07:13.644Z,136
2017-02-11T16:08:26.748Z,128
2017-02-11T16:09:39.775Z,116
2017-02-11T16:10:52.828Z,104
2017-02-11T16:12:05.860Z,96
2017-02-11T16:13:18.948Z,88
2017-02-11T16:14:32.047Z,80
2017-02-11T16:15:45.085Z,68
2017-02-11T16:16:58.158Z,56
2017-02-11T16:18:11.234Z,52
2017-02-11T16:19:24.317Z,48
2017-02-11T16:20:37.612Z,36
2017-02-11T16:21:50.669Z,36
2017-02-11T16:23:03.370Z,28
2017-02-11T16:24:16.394Z,24
2017-02-11T16:25:29.143Z,20
2017-02-11T16:26:42.230Z,20
2017-02-11T16:27:55.282Z,16
2017-02-11T16:29:08.373Z,12
2017-02-11T16:30:20.279Z,8
2017-02-11T16:31:33.351Z,8
2017-02-11T16:32:46.390Z,8
2017-02-11T16:33:59.442Z,8
2017-02-11T16:35:12.487Z,4
2017-02-11T16:36:25.155Z,4
2017-02-11T16:37:38.251Z,4
2017-02-11T16:38:51.358Z,0
2017-02-11T16:40:04.442Z,4
2017-02-11T16:41:17.524Z,4
2017-02-11T16:42:30.812Z,0
2017-02-11T16:43:43.498Z,0
2017-02-11T16:44:56.599Z,0
2017-02-11T16:46:09.735Z,0
2017-02-11T16:47:22.410Z,0
2017-02-11T16:48:35.504Z,0
2017-02-11T16:49:48.588Z,0
2017-02-11T16:51:01.649Z,0
2017-02-11T16:52:14.730Z,0
2017-02-11T16:53:27.788Z,0